Time;durP1;ratioP1;P1;durP2;ratioP2;P2;SDS_P1;SDS_P2;PMS_P1;PMS_P2;Temp;Humidity;BMP_temperature;BMP_pressure;BME280_temperature;BME280_humidity;BME280_pressure;Samples;Min_cycle;Max_cycle;Signal;HPM_P1;HPM_P2
2023/09/05 07:58:29;;;;;;;3.47;2.50;;;19.60;99.90;;;;;;5970609;24;20069;-91
2023/09/05 08:05:35;;;;;;;3.50;1.60;;;19.80;99.90;;;;;;5826861;24;20026;-89
2023/09/05 08:08:55;;;;;;;2.75;2.15;;;20.30;99.90;;;;;;5861535;24;20445;-92
2023/09/05 08:15:53;;;;;;;3.28;1.90;;;21.60;99.90;;;;;;5944032;24;20025;-90
2023/09/05 08:19:26;;;;;;;10.00;3.03;;;22.80;99.90;;;;;;5949602;24;20028;-90
2023/09/05 08:23:22;;;;;;;;;;;;;;;;;;;;;
2023/09/05 08:31:18;;;;;;;3.80;1.80;;;25.60;98.00;;;;;;5954700;24;20449;-93
2023/09/05 08:35:01;;;;;;;2.72;1.73;;;25.80;70.50;;;;;;5948562;24;20032;-93
2023/09/05 08:38:48;;;;;;;2.40;1.63;;;26.00;52.10;;;;;;5917079;24;20049;-89
2023/09/05 08:42:21;;;;;;;;;;;;;;;;;;;;;
2023/09/05 08:45:35;;;;;;;3.20;1.75;;;26.90;21.30;;;;;;6071507;23;20027;-93
2023/09/05 08:53:41;;;;;;;1.50;1.40;;;26.70;7.20;;;;;;6030721;23;20099;-92
2023/09/05 09:05:32;;;;;;;2.25;1.67;;;27.50;1.00;;;;;;5835693;24;20026;-87
2023/09/05 09:08:37;;;;;;;3.92;1.48;;;27.90;1.00;;;;;;5857142;24;20021;-91
2023/09/05 09:11:26;;;;;;;2.08;1.50;;;27.80;1.00;;;;;;5946595;24;20021;-90
2023/09/05 09:18:44;;;;;;;1.75;1.40;;;27.30;1.00;;;;;;6082473;23;20015;-90
2023/09/05 09:22:31;;;;;;;1.52;1.25;;;28.20;1.00;;;;;;6077596;23;20023;-90
2023/09/05 09:25:54;;;;;;;2.35;1.40;;;29.00;1.00;;;;;;6004060;23;20052;-90
2023/09/05 09:49:51;;;;;;;1.98;1.08;;;30.60;1.00;;;;;;5902035;24;20175;-90
2023/09/05 10:05:24;;;;;;;1.20;1.10;;;31.50;1.00;;;;;;5946341;24;20013;-91
2023/09/05 10:08:59;;;;;;;1.75;1.35;;;31.40;1.00;;;;;;6029305;23;20011;-91
2023/09/05 10:12:36;;;;;;;5.10;1.80;;;31.20;1.00;;;;;;6029362;23;20075;-92
2023/09/05 10:15:44;;;;;;;1.77;1.10;;;31.20;1.00;;;;;;6007887;23;20027;-94
2023/09/05 10:23:03;;;;;;;;;;;;;;;;;;;;;
2023/09/05 10:31:14;;;;;;;4.47;1.55;;;32.80;1.00;;;;;;5890332;24;20020;-91
2023/09/05 10:38:26;;;;;;;;;;;;;;;;;;;;;
2023/09/05 10:46:40;;;;;;;2.35;1.25;;;32.80;1.00;;;;;;6127940;23;20057;-93
2023/09/05 10:50:25;;;;;;;;;;;;;;;;;;;;;
2023/09/05 10:54:32;;;;;;;;;;;;;;;;;;;;;
2023/09/05 10:57:50;;;;;;;1.40;1.30;;;33.70;1.00;;;;;;6033175;23;20027;-91
2023/09/05 11:13:15;;;;;;;2.72;1.35;;;34.10;1.00;;;;;;6001631;23;20020;-90
2023/09/05 11:16:47;;;;;;;1.33;1.00;;;34.30;1.00;;;;;;5885961;24;20033;-92
2023/09/05 11:20:23;;;;;;;2.53;1.20;;;34.80;1.00;;;;;;5859336;24;20018;-92
2023/09/05 11:27:29;;;;;;;1.85;1.10;;;34.50;1.00;;;;;;5907722;24;20413;-92
2023/09/05 11:30:19;;;;;;;3.72;1.20;;;34.70;1.00;;;;;;6112441;23;20417;-92
2023/09/05 11:33:16;;;;;;;2.00;1.10;;;33.30;1.00;;;;;;6136702;23;20021;-92
2023/09/05 11:36:05;;;;;;;1.25;1.15;;;33.80;1.00;;;;;;6141002;23;20448;-93
2023/09/05 11:38:56;;;;;;;1.65;1.10;;;34.40;1.00;;;;;;6139998;23;20090;-89
2023/09/05 11:41:43;;;;;;;2.90;1.13;;;34.60;1.00;;;;;;6138845;23;20026;-93
2023/09/05 11:44:39;;;;;;;2.03;1.40;;;35.50;1.00;;;;;;6112037;23;20097;-90
2023/09/05 11:47:31;;;;;;;3.90;1.23;;;35.90;1.00;;;;;;6136995;23;20034;-91
2023/09/05 11:50:19;;;;;;;2.33;1.05;;;35.40;1.00;;;;;;6114837;23;20036;-93
2023/09/05 11:53:10;;;;;;;1.80;1.20;;;35.30;1.00;;;;;;6130197;23;20025;-93
2023/09/05 11:56:00;;;;;;;1.83;1.20;;;35.30;1.00;;;;;;6132739;23;20057;-90
2023/09/05 11:58:47;;;;;;;2.70;1.35;;;36.00;1.00;;;;;;6109254;23;20381;-91
2023/09/05 12:01:35;;;;;;;2.85;1.02;;;37.30;1.00;;;;;;6133209;23;20171;-92
2023/09/05 12:04:24;;;;;;;1.73;1.08;;;36.30;1.00;;;;;;6133707;23;20322;-92
2023/09/05 12:07:11;;;;;;;3.42;1.35;;;36.00;1.00;;;;;;6112456;23;20022;-93
2023/09/05 12:10:02;;;;;;;2.13;1.30;;;35.50;1.00;;;;;;6116026;23;20033;-91
2023/09/05 12:13:02;;;;;;;1.30;1.20;;;35.70;1.00;;;;;;6116490;23;20036;-91
2023/09/05 12:15:50;;;;;;;3.60;1.30;;;35.70;1.00;;;;;;6133522;23;20030;-90
2023/09/05 12:18:41;;;;;;;1.42;1.17;;;36.00;1.00;;;;;;6117275;23;20097;-91
2023/09/05 12:21:43;;;;;;;1.38;1.10;;;35.50;1.00;;;;;;6137048;23;20057;-92
2023/09/05 12:24:31;;;;;;;2.22;1.17;;;34.70;1.00;;;;;;6136838;23;20081;-90
2023/09/05 12:27:25;;;;;;;1.20;1.10;;;35.40;1.00;;;;;;6137159;23;20022;-93
2023/09/05 12:30:33;;;;;;;1.48;1.23;;;34.70;1.00;;;;;;6133232;23;20037;-92
2023/09/05 12:33:21;;;;;;;1.95;1.15;;;34.30;1.00;;;;;;6135824;23;20028;-89
2023/09/05 12:36:09;;;;;;;3.35;1.40;;;35.00;1.00;;;;;;6135100;23;20022;-89
2023/09/05 12:38:56;;;;;;;5.07;1.20;;;34.80;1.00;;;;;;6141007;23;20026;-92
2023/09/05 12:41:46;;;;;;;2.60;1.38;;;34.90;1.00;;;;;;6144411;23;20041;-92
2023/09/05 12:44:33;;;;;;;1.52;1.40;;;34.70;1.00;;;;;;6115013;23;20497;-91
2023/09/05 12:47:26;;;;;;;1.50;1.30;;;35.10;1.00;;;;;;6133961;23;20401;-90
2023/09/05 12:50:25;;;;;;;2.03;1.00;;;35.10;1.00;;;;;;6130459;23;20062;-91
2023/09/05 12:53:13;;;;;;;2.38;1.23;;;35.40;1.00;;;;;;6140782;23;20145;-93
2023/09/05 12:56:03;;;;;;;0.80;0.80;;;35.40;1.00;;;;;;6114379;23;20086;-92
2023/09/05 12:58:51;;;;;;;2.22;1.10;;;36.20;1.00;;;;;;6132267;23;20041;-91
2023/09/05 13:01:38;;;;;;;3.95;1.00;;;36.50;1.00;;;;;;6134414;23;20362;-92
2023/09/05 13:04:26;;;;;;;3.17;1.20;;;36.20;1.00;;;;;;6135798;23;20100;-93
2023/09/05 13:07:15;;;;;;;3.42;1.30;;;36.20;1.00;;;;;;6140493;23;20045;-92
2023/09/05 13:10:09;;;;;;;3.53;1.42;;;35.70;1.00;;;;;;6135135;23;20050;-91
2023/09/05 13:12:56;;;;;;;1.95;1.00;;;35.60;1.00;;;;;;6134455;23;20053;-92
2023/09/05 13:15:49;;;;;;;2.15;1.30;;;34.80;1.00;;;;;;6137951;23;20109;-92
2023/09/05 13:18:36;;;;;;;2.35;1.20;;;34.50;1.00;;;;;;6139790;23;20149;-92
2023/09/05 13:21:24;;;;;;;6.07;1.40;;;35.50;1.00;;;;;;6116300;23;20081;-92
2023/09/05 13:24:12;;;;;;;2.40;1.27;;;34.70;1.00;;;;;;6132627;23;20081;-93
2023/09/05 13:27:00;;;;;;;3.85;1.15;;;34.70;1.00;;;;;;6138335;23;20153;-90
2023/09/05 13:29:50;;;;;;;1.67;1.05;;;35.40;1.00;;;;;;6133760;23;20445;-91
2023/09/05 13:32:38;;;;;;;1.63;1.30;;;35.60;1.00;;;;;;6141158;23;20030;-87
2023/09/05 13:35:31;;;;;;;1.48;1.17;;;35.50;1.00;;;;;;6116878;23;20030;-89
2023/09/05 13:38:19;;;;;;;4.38;1.00;;;35.70;1.00;;;;;;6139201;23;20026;-91
2023/09/05 13:41:12;;;;;;;1.27;1.17;;;35.40;1.00;;;;;;6131233;23;20022;-91
2023/09/05 13:44:02;;;;;;;2.40;1.38;;;35.00;1.00;;;;;;6132911;23;20026;-91
2023/09/05 13:46:51;;;;;;;2.28;1.35;;;34.70;1.00;;;;;;6134236;23;20033;-89
2023/09/05 13:49:38;;;;;;;1.80;1.00;;;34.40;1.00;;;;;;6138760;23;20021;-94
2023/09/05 13:52:28;;;;;;;1.55;0.90;;;34.90;1.00;;;;;;6140293;23;20030;-91
2023/09/05 13:55:15;;;;;;;4.32;1.48;;;35.20;1.00;;;;;;6134972;23;20540;-91
2023/09/05 13:58:03;;;;;;;4.47;1.13;;;35.00;1.00;;;;;;6136022;23;20036;-94
2023/09/05 14:00:51;;;;;;;2.47;0.95;;;35.00;1.00;;;;;;6120085;23;20062;-89
2023/09/05 14:03:39;;;;;;;2.20;1.20;;;35.00;1.00;;;;;;6136776;23;20037;-90
2023/09/05 14:06:26;;;;;;;3.30;1.13;;;35.00;1.00;;;;;;6134250;23;20025;-88
2023/09/05 14:09:18;;;;;;;3.60;1.02;;;34.70;1.00;;;;;;6135934;23;20057;-91
2023/09/05 14:12:17;;;;;;;1.20;1.02;;;34.10;1.00;;;;;;6122476;23;20090;-91
2023/09/05 14:15:07;;;;;;;3.80;1.20;;;34.50;1.00;;;;;;6112695;23;20040;-89
2023/09/05 14:17:54;;;;;;;3.83;1.10;;;33.70;1.00;;;;;;6133795;23;20124;-92
2023/09/05 14:20:42;;;;;;;2.25;1.20;;;33.00;1.00;;;;;;6130772;23;20025;-90
2023/09/05 14:23:33;;;;;;;1.90;1.10;;;32.50;1.00;;;;;;6135686;23;20030;-91
2023/09/05 14:26:21;;;;;;;2.05;1.02;;;32.40;1.00;;;;;;6133183;23;20070;-91
2023/09/05 14:29:08;;;;;;;2.08;1.20;;;32.30;1.00;;;;;;6119236;23;20032;-90
2023/09/05 14:31:56;;;;;;;1.45;0.88;;;32.60;1.00;;;;;;6136197;23;20090;-90
2023/09/05 14:34:53;;;;;;;1.10;0.95;;;32.90;1.00;;;;;;6112511;23;20033;-89
2023/09/05 14:37:41;;;;;;;2.78;1.20;;;32.40;1.00;;;;;;6134172;23;20144;-88
2023/09/05 14:40:29;;;;;;;2.92;0.95;;;32.40;1.00;;;;;;6136351;23;20030;-91
2023/09/05 14:43:21;;;;;;;2.50;1.38;;;32.20;1.00;;;;;;6133644;23;20034;-92
2023/09/05 14:46:08;;;;;;;;;;;31.80;1.00;;;;;;6137054;23;20026;-89
2023/09/05 14:48:58;;;;;;;1.92;0.98;;;31.90;1.00;;;;;;6135292;23;19979;-91
2023/09/05 14:51:48;;;;;;;1.70;1.27;;;31.70;1.00;;;;;;6133547;23;20121;-86
2023/09/05 14:54:35;;;;;;;1.60;1.00;;;31.20;1.00;;;;;;6136072;23;20032;-91
2023/09/05 14:57:23;;;;;;;1.15;0.90;;;30.80;1.00;;;;;;6134439;23;20032;-90
2023/09/05 15:00:11;;;;;;;2.63;1.10;;;30.40;1.00;;;;;;6133687;23;20417;-93
2023/09/05 15:02:59;;;;;;;2.78;1.17;;;30.10;1.00;;;;;;6134546;23;20208;-93
2023/09/05 15:05:46;;;;;;;4.32;1.40;;;30.10;1.00;;;;;;6138257;23;20030;-89
2023/09/05 15:08:34;;;;;;;2.88;1.10;;;30.10;1.00;;;;;;6134947;23;20022;-91
2023/09/05 15:11:21;;;;;;;5.03;1.23;;;30.30;1.00;;;;;;6136290;23;20042;-92
2023/09/05 15:14:11;;;;;;;3.60;1.30;;;30.40;1.00;;;;;;6193562;23;20031;-92
2023/09/05 15:16:58;;;;;;;2.85;1.45;;;30.00;1.00;;;;;;6219295;23;20024;-88
2023/09/05 15:19:49;;;;;;;5.07;1.25;;;29.90;1.00;;;;;;6213658;23;20031;-88
2023/09/05 15:22:37;;;;;;;2.65;1.30;;;29.70;1.00;;;;;;6217587;23;20032;-88
2023/09/05 15:25:24;;;;;;;1.15;0.95;;;30.10;1.00;;;;;;6217616;23;20080;-90
2023/09/05 15:28:12;;;;;;;1.80;1.20;;;30.20;1.00;;;;;;6219710;23;20020;-90
2023/09/05 15:31:04;;;;;;;3.75;1.30;;;29.40;1.00;;;;;;6215140;23;20029;-89
2023/09/05 15:33:52;;;;;;;2.05;1.10;;;29.00;1.00;;;;;;6217512;23;20024;-90
2023/09/05 15:36:40;;;;;;;3.42;1.33;;;28.90;1.00;;;;;;6216240;23;20076;-89
2023/09/05 15:39:30;;;;;;;5.18;1.17;;;29.20;1.00;;;;;;6215883;23;20297;-88
2023/09/05 15:42:27;;;;;;;1.88;1.20;;;29.20;1.00;;;;;;6218460;23;20024;-88
2023/09/05 15:45:15;;;;;;;5.10;1.48;;;28.80;1.00;;;;;;6216998;23;20031;-88
2023/09/05 15:48:03;;;;;;;1.55;1.10;;;28.50;1.00;;;;;;6223037;23;20012;-88
2023/09/05 15:50:50;;;;;;;3.63;1.17;;;28.60;1.00;;;;;;6232149;23;20062;-88
2023/09/05 15:53:38;;;;;;;2.25;0.90;;;28.30;1.00;;;;;;6225912;23;20024;-88
2023/09/05 15:56:26;;;;;;;2.03;1.40;;;27.90;1.00;;;;;;6222829;23;20320;-89
2023/09/05 15:59:16;;;;;;;1.95;1.13;;;27.70;1.00;;;;;;6217299;23;20036;-87
2023/09/05 16:02:03;;;;;;;2.95;1.20;;;27.60;1.00;;;;;;6226332;23;20306;-88
2023/09/05 16:04:51;;;;;;;1.27;0.98;;;27.70;1.00;;;;;;6219147;23;20024;-88
2023/09/05 16:07:38;;;;;;;2.05;1.13;;;27.50;1.00;;;;;;6214340;23;20095;-87
2023/09/05 16:10:26;;;;;;;2.58;1.17;;;27.40;1.00;;;;;;6214796;23;20035;-90
2023/09/05 16:13:13;;;;;;;1.65;0.93;;;27.60;1.00;;;;;;6215256;23;20099;-88
2023/09/05 16:16:01;;;;;;;2.13;1.20;;;27.50;1.00;;;;;;6215959;23;20039;-87
2023/09/05 16:18:55;;;;;;;2.35;1.30;;;27.50;1.00;;;;;;6215480;23;20034;-89
2023/09/05 16:21:44;;;;;;;4.32;1.23;;;27.50;1.00;;;;;;6216763;23;20028;-88
2023/09/05 16:24:32;;;;;;;2.13;1.40;;;27.50;1.00;;;;;;6216217;23;20055;-88
2023/09/05 16:27:22;;;;;;;1.75;1.15;;;27.30;1.00;;;;;;6216065;23;20159;-88
2023/09/05 16:30:11;;;;;;;3.55;1.40;;;27.20;1.00;;;;;;6218596;23;20021;-89
2023/09/05 16:32:58;;;;;;;4.35;1.30;;;27.10;1.00;;;;;;6219293;23;20363;-87
2023/09/05 16:35:47;;;;;;;1.70;1.20;;;26.60;1.00;;;;;;6217159;23;20032;-88
2023/09/05 16:38:36;;;;;;;2.88;1.30;;;25.80;1.00;;;;;;6213785;23;20024;-90
2023/09/05 16:41:29;;;;;;;1.35;1.10;;;25.20;1.00;;;;;;6216630;23;20032;-91
2023/09/05 16:44:19;;;;;;;3.08;1.20;;;24.70;1.00;;;;;;6216429;23;20029;-93
2023/09/05 16:47:06;;;;;;;1.25;1.15;;;24.40;1.00;;;;;;6216346;23;20031;-92
2023/09/05 16:49:56;;;;;;;1.83;1.33;;;24.30;1.00;;;;;;6213894;23;20270;-89
2023/09/05 16:52:46;;;;;;;3.78;1.48;;;24.10;1.00;;;;;;6217827;23;20032;-90
2023/09/05 16:55:37;;;;;;;1.38;1.15;;;24.00;1.00;;;;;;6215546;23;20040;-91
2023/09/05 16:58:24;;;;;;;2.05;1.55;;;23.90;1.00;;;;;;6213518;23;20039;-91
2023/09/05 17:01:14;;;;;;;2.15;1.50;;;23.70;1.00;;;;;;6215534;23;20428;-90
2023/09/05 17:04:04;;;;;;;2.03;1.60;;;23.70;1.00;;;;;;6215561;23;20028;-89
2023/09/05 17:06:57;;;;;;;3.45;1.23;;;23.60;1.00;;;;;;6214054;23;20028;-91
2023/09/05 17:09:50;;;;;;;3.00;1.50;;;23.50;1.00;;;;;;6216117;23;20025;-88
2023/09/05 17:12:37;;;;;;;2.67;1.70;;;23.40;1.00;;;;;;6215386;23;20499;-92
2023/09/05 17:15:29;;;;;;;2.00;1.40;;;23.30;1.00;;;;;;6213399;23;20035;-90
2023/09/05 17:18:23;;;;;;;1.92;1.40;;;23.20;1.00;;;;;;6211836;23;20029;-91
2023/09/05 17:21:13;;;;;;;5.85;1.60;;;23.10;1.00;;;;;;6215314;23;20387;-92
2023/09/05 17:24:03;;;;;;;2.88;1.95;;;23.00;1.00;;;;;;6214567;23;20024;-91
2023/09/05 17:26:50;;;;;;;2.80;1.70;;;22.90;1.00;;;;;;6215522;23;20020;-89
2023/09/05 17:29:47;;;;;;;4.60;1.73;;;22.90;1.00;;;;;;6216690;23;20096;-89
2023/09/05 17:32:35;;;;;;;2.15;1.60;;;22.90;1.00;;;;;;6217352;23;20024;-91
2023/09/05 17:35:22;;;;;;;6.50;2.13;;;22.80;1.00;;;;;;6218213;23;20278;-90
2023/09/05 17:38:09;;;;;;;3.80;2.08;;;22.70;1.00;;;;;;6213732;23;20596;-91
2023/09/05 17:40:58;;;;;;;3.92;2.08;;;22.70;1.00;;;;;;6219464;23;20021;-91
2023/09/05 17:43:49;;;;;;;4.38;2.20;;;22.60;1.00;;;;;;6217161;23;20099;-89
2023/09/05 17:46:39;;;;;;;3.45;1.85;;;22.50;1.00;;;;;;6218698;23;20032;-90
2023/09/05 17:49:26;;;;;;;5.18;1.80;;;22.30;1.00;;;;;;6218119;23;20028;-91
2023/09/05 17:52:16;;;;;;;4.13;1.90;;;22.20;1.00;;;;;;6218532;23;20021;-89
2023/09/05 17:55:04;;;;;;;4.60;2.20;;;22.10;1.00;;;;;;6217799;23;20157;-89
2023/09/05 17:57:53;;;;;;;3.88;1.95;;;22.00;1.00;;;;;;6219086;23;20024;-91
2023/09/05 18:00:46;;;;;;;7.93;2.13;;;21.90;1.00;;;;;;6218911;23;20039;-90
2023/09/05 18:03:36;;;;;;;3.63;2.15;;;21.80;1.00;;;;;;6219304;23;20028;-90
2023/09/05 18:06:29;;;;;;;4.32;1.92;;;21.60;1.00;;;;;;6216117;23;20424;-89
2023/09/05 18:09:19;;;;;;;6.38;2.08;;;21.50;1.00;;;;;;6218293;23;20055;-91
2023/09/05 18:12:08;;;;;;;3.30;1.90;;;21.40;1.00;;;;;;6217119;23;20021;-92
2023/09/05 18:14:56;;;;;;;4.80;2.33;;;21.30;1.00;;;;;;6214629;23;20049;-90
2023/09/05 18:17:43;;;;;;;2.88;2.20;;;21.20;1.00;;;;;;6214194;23;20025;-90
2023/09/05 18:20:32;;;;;;;3.22;1.85;;;21.10;1.00;;;;;;6215077;23;20407;-89
2023/09/05 18:23:24;;;;;;;4.90;2.00;;;21.00;1.00;;;;;;6214234;23;20034;-91
2023/09/05 18:26:14;;;;;;;5.75;2.40;;;20.90;1.80;;;;;;6215102;23;20021;-93
2023/09/05 18:29:08;;;;;;;3.03;2.03;;;20.80;12.60;;;;;;6215513;23;20029;-91
2023/09/05 18:31:57;;;;;;;3.08;2.13;;;20.70;16.90;;;;;;6215708;23;20381;-91
2023/09/05 18:34:46;;;;;;;3.90;1.92;;;20.70;21.00;;;;;;6218657;23;20106;-90
2023/09/05 18:37:33;;;;;;;6.18;2.60;;;20.60;21.90;;;;;;6217128;23;20035;-91
2023/09/05 18:40:25;;;;;;;3.97;2.22;;;20.50;31.00;;;;;;6216102;23;20396;-91
2023/09/05 18:43:15;;;;;;;9.40;2.15;;;20.50;34.00;;;;;;6214823;23;20032;-89
2023/09/05 18:46:03;;;;;;;4.75;2.67;;;20.40;46.20;;;;;;6218391;23;20043;-90
2023/09/05 18:48:50;;;;;;;3.33;2.20;;;20.30;54.00;;;;;;6216598;23;20136;-90
2023/09/05 18:51:40;;;;;;;4.35;2.83;;;20.10;77.30;;;;;;6216242;23;20438;-89
2023/09/05 18:54:30;;;;;;;5.00;3.00;;;20.00;93.80;;;;;;6218031;23;20088;-91
2023/09/05 18:57:18;;;;;;;3.40;2.28;;;19.90;99.90;;;;;;6218184;23;20155;-89
2023/09/05 19:00:07;;;;;;;6.75;2.30;;;19.70;99.90;;;;;;6219998;23;20036;-92
2023/09/05 19:02:57;;;;;;;3.05;2.30;;;19.70;99.90;;;;;;6227819;23;20100;-91
2023/09/05 19:05:45;;;;;;;5.10;2.60;;;19.50;99.90;;;;;;6227774;23;20104;-89
2023/09/05 19:08:32;;;;;;;4.85;2.85;;;19.40;99.90;;;;;;6226783;23;20059;-92
2023/09/05 19:11:20;;;;;;;4.00;2.70;;;19.40;99.90;;;;;;6236214;23;20016;-88
2023/09/05 19:14:11;;;;;;;8.00;3.08;;;19.40;99.90;;;;;;6238891;23;20021;-89
2023/09/05 19:17:01;;;;;;;6.03;2.60;;;19.30;99.90;;;;;;6234805;23;20021;-90
2023/09/05 19:19:50;;;;;;;6.45;2.28;;;19.40;99.90;;;;;;6219008;23;20024;-91
2023/09/05 19:22:38;;;;;;;6.68;2.47;;;19.40;99.90;;;;;;6216597;23;20175;-91
2023/09/05 19:25:25;;;;;;;7.05;2.75;;;19.40;99.90;;;;;;6217970;23;20032;-90
2023/09/05 19:28:13;;;;;;;6.75;3.00;;;19.30;99.90;;;;;;6215506;23;20108;-92
2023/09/05 19:31:06;;;;;;;5.45;2.92;;;19.20;99.90;;;;;;6217799;23;20035;-90
2023/09/05 19:34:06;;;;;;;5.72;2.83;;;19.10;99.90;;;;;;6214694;23;20050;-92
2023/09/05 19:36:56;;;;;;;3.95;3.05;;;19.00;99.90;;;;;;6217015;23;20036;-91
2023/09/05 19:39:46;;;;;;;4.97;2.75;;;18.90;99.90;;;;;;6215640;23;20028;-90
2023/09/05 19:42:34;;;;;;;6.43;2.80;;;18.80;99.90;;;;;;6214669;23;20029;-90
2023/09/05 19:45:25;;;;;;;4.97;3.00;;;18.80;99.90;;;;;;6219263;23;20408;-88
2023/09/05 19:48:15;;;;;;;7.25;2.97;;;18.70;99.90;;;;;;6224188;23;20044;-87
2023/09/05 19:51:03;;;;;;;4.78;2.97;;;18.60;99.90;;;;;;6233700;23;20300;-90
2023/09/05 19:53:52;;;;;;;7.07;3.05;;;18.60;99.90;;;;;;6227387;23;20099;-89
2023/09/05 19:56:44;;;;;;;5.57;3.03;;;18.60;99.90;;;;;;6221764;23;20371;-89
2023/09/05 19:59:37;;;;;;;3.58;3.00;;;18.60;99.90;;;;;;6216487;23;20040;-89
2023/09/05 20:02:27;;;;;;;6.88;3.20;;;18.50;99.90;;;;;;6217712;23;20038;-88
2023/09/05 20:05:15;;;;;;;8.95;3.60;;;18.40;99.90;;;;;;6222040;23;20035;-89
2023/09/05 20:08:06;;;;;;;4.57;2.78;;;18.40;99.90;;;;;;6224134;23;20125;-90
2023/09/05 20:10:55;;;;;;;4.18;2.78;;;18.30;99.90;;;;;;6221729;23;20096;-87
2023/09/05 20:13:45;;;;;;;4.72;2.97;;;18.20;99.90;;;;;;6221902;23;20079;-91
2023/09/05 20:16:35;;;;;;;5.53;2.70;;;18.20;99.90;;;;;;6221044;23;20024;-89
2023/09/05 20:19:28;;;;;;;9.18;3.08;;;18.00;99.90;;;;;;6222749;23;20028;-91
2023/09/05 20:22:16;;;;;;;10.48;3.42;;;17.90;99.90;;;;;;6223763;23;20086;-90
2023/09/05 20:25:04;;;;;;;6.22;3.08;;;17.80;99.90;;;;;;6219799;23;20205;-91
2023/09/05 20:27:54;;;;;;;6.07;3.28;;;17.80;99.90;;;;;;6222258;23;20315;-91
2023/09/05 20:30:49;;;;;;;5.22;3.45;;;17.80;99.90;;;;;;6225606;23;20030;-90
2023/09/05 20:33:37;;;;;;;4.03;3.30;;;17.80;99.90;;;;;;6223065;23;20041;-91
2023/09/05 20:36:26;;;;;;;4.75;3.35;;;17.70;99.90;;;;;;6215654;23;20032;-91
2023/09/05 20:39:14;;;;;;;7.07;3.38;;;17.60;99.90;;;;;;6215802;23;20709;-89
2023/09/05 20:42:04;;;;;;;5.45;3.45;;;17.40;99.90;;;;;;6215465;23;20294;-90
2023/09/05 20:44:56;;;;;;;8.27;3.67;;;17.40;99.90;;;;;;6218197;23;20028;-91
2023/09/05 20:47:47;;;;;;;6.10;3.45;;;17.40;99.90;;;;;;6222202;23;20082;-90
2023/09/05 20:50:36;;;;;;;5.63;3.20;;;17.30;99.90;;;;;;6222894;23;20024;-88
2023/09/05 20:53:30;;;;;;;5.57;3.67;;;17.20;99.90;;;;;;6230226;23;20076;-89
2023/09/05 20:56:19;;;;;;;7.00;3.60;;;17.00;99.90;;;;;;6218898;23;20063;-91
2023/09/05 20:59:10;;;;;;;7.57;3.38;;;16.80;99.90;;;;;;6214204;23;20039;-88
2023/09/05 21:02:02;;;;;;;7.60;3.70;;;16.60;1.00;;;;;;6217298;23;20024;-90
2023/09/05 21:04:53;;;;;;;6.50;3.95;;;16.50;1.00;;;;;;6219236;23;20467;-89
2023/09/05 21:07:41;;;;;;;8.00;4.40;;;16.30;1.00;;;;;;6215431;23;20020;-89
2023/09/05 21:10:28;;;;;;;4.78;3.63;;;16.10;1.00;;;;;;6216943;23;20123;-90
2023/09/05 21:13:16;;;;;;;7.10;4.18;;;16.00;18.60;;;;;;6218176;23;20024;-88
2023/09/05 21:16:08;;;;;;;4.60;3.85;;;15.80;57.50;;;;;;6221103;23;20028;-89
2023/09/05 21:19:00;;;;;;;7.23;4.20;;;15.70;99.90;;;;;;6214001;23;20652;-89
2023/09/05 21:21:47;;;;;;;7.00;4.55;;;15.60;99.90;;;;;;6218117;23;20091;-90
2023/09/05 21:24:37;;;;;;;8.82;4.30;;;15.50;99.90;;;;;;6218714;23;20055;-90
2023/09/05 21:27:25;;;;;;;6.47;4.45;;;15.30;99.90;;;;;;6218873;23;20035;-89
2023/09/05 21:30:13;;;;;;;6.82;4.55;;;15.20;1.00;;;;;;6214546;23;20036;-90
2023/09/05 21:33:05;;;;;;;6.03;4.00;;;15.10;12.00;;;;;;6218357;23;20100;-90
2023/09/05 21:35:55;;;;;;;5.63;4.43;;;15.20;1.00;;;;;;6215135;23;20024;-89
2023/09/05 21:38:44;;;;;;;7.32;4.70;;;15.30;1.00;;;;;;6217836;23;20039;-89
2023/09/05 21:41:32;;;;;;;8.77;4.40;;;15.50;99.90;;;;;;6216711;23;20450;-90
2023/09/05 21:44:22;;;;;;;7.95;4.20;;;15.70;99.90;;;;;;6216249;23;20028;-91
2023/09/05 21:47:09;;;;;;;10.45;4.30;;;15.90;99.90;;;;;;6216016;23;20020;-88
2023/09/05 21:49:56;;;;;;;10.45;4.03;;;15.90;99.90;;;;;;6218334;23;20452;-91
2023/09/05 21:52:44;;;;;;;8.05;4.10;;;16.00;99.90;;;;;;6214783;23;20032;-88
2023/09/05 21:55:33;;;;;;;4.68;3.85;;;16.10;41.00;;;;;;6217229;23;20025;-88
2023/09/05 21:58:21;;;;;;;7.53;4.07;;;16.10;20.70;;;;;;6217797;23;20393;-91
2023/09/05 22:01:13;;;;;;;6.45;3.78;;;16.00;1.00;;;;;;6213900;23;20028;-89
2023/09/05 22:04:01;;;;;;;;;;;16.00;1.00;;;;;;6216734;23;20032;-91
2023/09/05 22:06:50;;;;;;;6.35;4.35;;;15.80;1.00;;;;;;6215618;23;19951;-90
2023/09/05 22:09:40;;;;;;;7.05;4.68;;;15.70;55.30;;;;;;6215927;23;20029;-89
2023/09/05 22:12:28;;;;;;;7.43;5.13;;;15.50;99.90;;;;;;6216327;23;20024;-89
2023/09/05 22:15:18;;;;;;;5.00;4.18;;;15.40;48.50;;;;;;6215651;23;20096;-89
2023/09/05 22:18:07;;;;;;;7.72;4.78;;;15.40;99.90;;;;;;6219028;22;20036;-90
2023/09/05 22:20:56;;;;;;;7.22;4.82;;;15.30;99.90;;;;;;6216177;23;20199;-89
2023/09/05 22:23:47;;;;;;;6.45;5.13;;;15.10;1.00;;;;;;6216087;23;20039;-89
2023/09/05 22:26:37;;;;;;;8.00;4.90;;;14.80;99.90;;;;;;6215563;23;20034;-92
2023/09/05 22:29:27;;;;;;;9.93;4.47;;;14.60;99.90;;;;;;6217484;23;20048;-89
2023/09/05 22:32:14;;;;;;;6.18;4.70;;;14.50;99.90;;;;;;6215814;23;20025;-89
2023/09/05 22:35:03;;;;;;;7.82;5.10;;;14.40;99.90;;;;;;6216287;23;20020;-90
2023/09/05 22:37:53;;;;;;;8.20;4.93;;;14.20;99.90;;;;;;6217819;23;20043;-89
2023/09/05 22:40:40;;;;;;;9.25;5.43;;;14.00;99.90;;;;;;6216281;23;20044;-89
2023/09/05 22:43:34;;;;;;;7.65;5.65;;;13.90;99.90;;;;;;6212678;23;20408;-89
2023/09/05 22:46:25;;;;;;;8.40;5.63;;;13.80;1.00;;;;;;6216547;23;20021;-89
2023/09/05 22:49:12;;;;;;;8.75;6.25;;;13.70;99.90;;;;;;6215068;23;20039;-89
2023/09/05 22:52:02;;;;;;;6.43;5.30;;;13.70;1.00;;;;;;6217637;23;20025;-91
2023/09/05 22:54:52;;;;;;;12.10;6.50;;;13.60;99.90;;;;;;6215771;23;20214;-90
2023/09/05 22:57:42;;;;;;;8.23;5.78;;;13.50;99.90;;;;;;6213708;23;20471;-89
2023/09/05 23:00:31;;;;;;;12.25;6.75;;;13.50;1.00;;;;;;6213771;23;20415;-91
2023/09/05 23:03:24;;;;;;;9.95;7.40;;;13.50;37.30;;;;;;6217491;23;20264;-91
2023/09/05 23:06:14;;;;;;;9.88;7.15;;;13.40;99.90;;;;;;6217438;23;20020;-91
2023/09/05 23:09:05;;;;;;;11.65;7.25;;;13.40;99.90;;;;;;6215250;23;20024;-90
2023/09/05 23:11:53;;;;;;;10.18;6.88;;;13.30;99.90;;;;;;6216062;23;20025;-88
2023/09/05 23:14:40;;;;;;;8.82;6.88;;;13.20;99.90;;;;;;6214884;23;20266;-89
2023/09/05 23:17:34;;;;;;;9.48;6.75;;;13.20;99.90;;;;;;6213657;23;20043;-90
2023/09/05 23:20:24;;;;;;;8.00;6.25;;;13.30;99.90;;;;;;6216818;23;20048;-90
2023/09/05 23:23:12;;;;;;;13.50;7.55;;;13.40;99.90;;;;;;6218255;22;20029;-87
2023/09/05 23:25:59;;;;;;;9.35;7.10;;;13.20;99.90;;;;;;6216885;23;20064;-91
2023/09/05 23:28:46;;;;;;;10.43;6.50;;;13.20;99.90;;;;;;6223127;23;20111;-92
2023/09/05 23:31:36;;;;;;;9.48;6.70;;;13.10;99.90;;;;;;6226807;23;20413;-91
2023/09/05 23:34:25;;;;;;;8.90;7.43;;;13.00;99.90;;;;;;6225921;23;20169;-92
2023/09/05 23:37:12;;;;;;;10.82;7.65;;;13.00;99.90;;;;;;6227028;23;20075;-92
2023/09/05 23:39:59;;;;;;;11.48;7.70;;;12.80;99.90;;;;;;6226107;23;20051;-92
2023/09/05 23:42:49;;;;;;;12.38;7.70;;;12.70;99.90;;;;;;6228018;23;20050;-90
2023/09/05 23:45:37;;;;;;;11.10;7.57;;;12.70;99.90;;;;;;6226620;23;20413;-90
2023/09/05 23:48:26;;;;;;;9.63;7.78;;;12.70;99.90;;;;;;6232510;23;20033;-93
2023/09/05 23:51:16;;;;;;;12.23;8.90;;;12.70;99.90;;;;;;6230115;23;20096;-89
2023/09/05 23:54:05;;;;;;;13.40;9.23;;;12.60;99.90;;;;;;6226902;23;20082;-92
2023/09/05 23:56:52;;;;;;;13.07;8.77;;;12.60;99.90;;;;;;6223033;23;20056;-89
2023/09/05 23:59:40;;;;;;;13.07;7.85;;;12.60;99.90;;;;;;6222763;23;20032;-92
